createdAt,value
2023-05-12T00:01:56.131Z,6.70
2023-05-12T00:04:23.160Z,6.90
2023-05-12T00:06:50.167Z,6.80
2023-05-12T00:09:17.337Z,7.00
2023-05-12T00:11:44.357Z,6.30
2023-05-12T00:14:11.364Z,6.60
2023-05-12T00:16:38.442Z,6.40
2023-05-12T00:19:05.507Z,6.90
2023-05-12T00:21:32.650Z,7.00
2023-05-12T00:23:59.688Z,7.60
2023-05-12T00:26:27.288Z,7.10
2023-05-12T00:28:54.376Z,7.30
2023-05-12T00:31:21.372Z,6.80
2023-05-12T00:33:48.386Z,7.10
2023-05-12T00:36:15.340Z,6.60
2023-05-12T00:38:42.881Z,6.30
2023-05-12T00:41:09.881Z,6.90
2023-05-12T00:43:36.923Z,7.00
2023-05-12T00:46:05.843Z,6.60
2023-05-12T00:48:33.506Z,6.70
2023-05-12T00:51:01.447Z,6.90
2023-05-12T00:53:41.381Z,7.00
2023-05-12T00:56:17.382Z,7.10
2023-05-12T00:58:44.580Z,6.50
2023-05-12T01:01:11.764Z,6.80
2023-05-12T01:03:38.959Z,6.40
2023-05-12T01:06:12.118Z,6.30
2023-05-12T01:08:41.704Z,6.30
2023-05-12T01:11:08.771Z,7.20
2023-05-12T01:13:35.780Z,6.70
2023-05-12T01:16:04.369Z,6.70
2023-05-12T01:18:34.963Z,7.30
2023-05-12T01:23:35.871Z,6.80
2023-05-12T04:22:14.232Z,7.80
2023-05-12T06:22:57.504Z,5.80
2023-05-12T06:25:39.606Z,5.70
2023-05-12T07:19:32.554Z,5.20
2023-05-12T07:23:04.433Z,5.10
2023-05-12T07:25:36.200Z,4.50
2023-05-12T07:30:48.894Z,4.70
2023-05-12T07:33:21.843Z,4.70
2023-05-12T07:35:50.473Z,5.00
2023-05-12T07:38:17.884Z,4.80
2023-05-12T07:40:46.152Z,4.70
2023-05-12T07:43:14.149Z,4.40
2023-05-12T07:45:41.496Z,4.70
2023-05-12T07:48:11.180Z,4.30
2023-05-12T07:50:39.346Z,4.50
2023-05-12T07:53:06.637Z,5.10
2023-05-12T07:55:34.215Z,4.40
2023-05-12T07:58:02.284Z,4.80
2023-05-12T08:00:37.102Z,4.70
2023-05-12T08:03:07.427Z,4.40
2023-05-12T08:05:35.168Z,4.50
2023-05-12T08:08:02.473Z,4.20
2023-05-12T08:10:32.396Z,4.90
2023-05-12T08:13:01.721Z,4.70
2023-05-12T08:15:31.748Z,4.40
2023-05-12T08:17:59.476Z,4.50
2023-05-12T08:20:26.682Z,4.30
2023-05-12T08:22:56.935Z,4.60
2023-05-12T08:25:29.991Z,5.00
2023-05-12T08:28:05.781Z,5.10
2023-05-12T08:30:38.481Z,4.70
2023-05-12T08:33:06.738Z,4.40
2023-05-12T08:35:36.374Z,4.10
2023-05-12T08:38:05.102Z,4.80
2023-05-12T08:40:40.857Z,4.40
2023-05-12T08:43:22.096Z,4.20
2023-05-12T08:45:49.968Z,4.40
2023-05-12T08:48:19.624Z,4.60
2023-05-12T08:50:54.116Z,4.60
2023-05-12T08:53:25.623Z,4.30
2023-05-12T08:57:09.626Z,4.80
2023-05-12T08:58:49.345Z,5.00
2023-05-12T09:01:19.182Z,4.30
2023-05-12T09:03:46.503Z,4.40
2023-05-12T09:06:14.552Z,4.80
2023-05-12T09:08:43.605Z,4.70
2023-05-12T09:11:12.840Z,4.30
2023-05-12T09:14:02.503Z,4.60
2023-05-12T09:16:35.560Z,4.00
2023-05-12T09:19:06.666Z,4.10
2023-05-12T09:21:37.668Z,4.50
2023-05-12T09:24:08.499Z,4.50
2023-05-12T09:26:49.037Z,3.80
2023-05-12T09:29:24.283Z,4.00
2023-05-12T09:31:58.915Z,4.10
2023-05-12T09:34:40.616Z,4.30
2023-05-12T09:37:08.247Z,4.30
2023-05-12T09:39:38.495Z,4.20
2023-05-12T09:42:11.987Z,4.00
2023-05-12T09:44:40.468Z,4.30
2023-05-12T09:47:09.727Z,4.20
2023-05-12T09:49:37.848Z,4.10
2023-05-12T09:52:05.267Z,4.00
2023-05-12T09:54:33.958Z,4.40
2023-05-12T09:57:04.609Z,3.50
2023-05-12T09:59:35.656Z,4.00
2023-05-12T10:02:05.964Z,3.90
2023-05-12T10:07:11.604Z,4.10
2023-05-12T10:12:09.925Z,4.30
2023-05-12T10:14:37.561Z,3.70
2023-05-12T10:17:06.760Z,3.80
2023-05-12T10:19:35.596Z,4.00
2023-05-12T10:22:03.787Z,3.50
2023-05-12T10:24:31.100Z,4.20
2023-05-12T10:26:59.050Z,3.70
2023-05-12T10:29:29.295Z,4.10
2023-05-12T10:31:57.692Z,3.70
2023-05-12T10:34:32.892Z,4.00
2023-05-12T10:37:00.335Z,4.30
2023-05-12T10:39:32.528Z,4.20
2023-05-12T10:42:08.159Z,4.20
2023-05-12T10:44:36.316Z,4.10
2023-05-12T10:47:15.792Z,4.30
2023-05-12T10:49:42.881Z,3.80
2023-05-12T10:52:19.390Z,4.10
2023-05-12T10:54:47.233Z,3.70
2023-05-12T10:57:24.656Z,3.70
2023-05-12T10:59:57.622Z,3.90
2023-05-12T11:02:31.139Z,3.80
2023-05-12T11:05:03.109Z,3.90
2023-05-12T11:07:34.697Z,4.50
2023-05-12T11:10:05.414Z,3.80
2023-05-12T11:12:37.573Z,4.00
2023-05-12T11:15:06.445Z,3.90
2023-05-12T11:17:37.650Z,4.30
2023-05-12T11:20:05.169Z,3.80
2023-05-12T11:22:32.934Z,3.80
2023-05-12T11:25:09.149Z,3.90
2023-05-12T11:27:38.977Z,4.00
2023-05-12T11:30:07.901Z,4.20
2023-05-12T11:32:34.910Z,3.80
2023-05-12T11:35:13.782Z,3.90
2023-05-12T11:37:43.042Z,4.10
2023-05-12T11:40:20.605Z,4.00
2023-05-12T11:42:51.920Z,3.70
2023-05-12T11:45:21.877Z,4.00
2023-05-12T11:50:24.116Z,3.30
2023-05-12T11:52:52.696Z,3.70
2023-05-12T11:55:22.991Z,3.90
2023-05-12T12:00:34.589Z,3.70
2023-05-12T12:03:28.239Z,4.00
2023-05-12T12:06:01.482Z,3.70
2023-05-12T12:08:29.141Z,3.90
2023-05-12T12:10:56.600Z,4.10
2023-05-12T12:13:25.243Z,3.80
2023-05-12T12:15:52.716Z,3.80
2023-05-12T12:18:19.764Z,4.20
2023-05-12T12:20:47.301Z,3.80
2023-05-12T12:23:14.315Z,3.70
2023-05-12T12:25:44.495Z,3.70
2023-05-12T12:28:11.927Z,3.70
2023-05-12T12:30:38.980Z,3.90
2023-05-12T12:33:06.082Z,3.50
2023-05-12T12:35:33.323Z,3.70
2023-05-12T12:38:00.415Z,4.00
2023-05-12T12:40:27.905Z,4.10
2023-05-12T12:42:55.018Z,4.30
2023-05-12T12:45:22.485Z,3.80
2023-05-12T12:47:54.296Z,3.80
2023-05-12T12:50:21.723Z,3.90
2023-05-12T12:52:48.809Z,4.30
2023-05-12T12:55:15.916Z,4.40
2023-05-12T12:57:42.819Z,4.00
2023-05-12T13:00:10.491Z,3.80
2023-05-12T13:02:38.272Z,3.80
2023-05-12T13:05:06.843Z,3.70
2023-05-12T13:07:34.184Z,4.00
2023-05-12T13:10:01.321Z,4.00
2023-05-12T13:12:30.127Z,3.70
2023-05-12T13:14:57.506Z,3.80
2023-05-12T13:17:24.488Z,4.00
2023-05-12T13:19:52.422Z,4.10
2023-05-12T13:22:19.747Z,4.30
2023-05-12T13:24:47.290Z,4.10
2023-05-12T13:27:14.303Z,4.20
2023-05-12T13:29:46.843Z,3.60
2023-05-12T13:32:15.790Z,4.10
2023-05-12T13:34:43.106Z,3.90
2023-05-12T13:37:10.148Z,4.30
2023-05-12T13:39:37.196Z,4.20
2023-05-12T13:42:04.427Z,4.00
2023-05-12T13:44:31.507Z,4.40
2023-05-12T13:46:58.563Z,4.00
2023-05-12T13:49:25.638Z,4.10
2023-05-12T13:51:52.603Z,4.00
2023-05-12T13:54:19.615Z,3.90
2023-05-12T13:56:46.888Z,4.00
2023-05-12T13:59:14.022Z,4.30
2023-05-12T14:01:41.322Z,4.00
2023-05-12T14:04:08.354Z,4.40
2023-05-12T14:06:35.257Z,4.40
2023-05-12T14:09:06.545Z,4.40
2023-05-12T14:11:34.463Z,4.50
2023-05-12T14:14:03.114Z,4.10
2023-05-12T14:16:30.362Z,4.10
2023-05-12T14:18:59.339Z,4.00
2023-05-12T14:21:26.908Z,4.00
2023-05-12T14:23:54.106Z,4.40
2023-05-12T14:26:22.122Z,3.90
2023-05-12T14:28:49.430Z,4.10
2023-05-12T14:31:16.890Z,3.90
2023-05-12T14:33:43.984Z,4.30
2023-05-12T14:36:11.089Z,4.00
2023-05-12T14:38:38.169Z,3.90
2023-05-12T14:41:07.684Z,4.20
2023-05-12T14:43:35.032Z,4.20
2023-05-12T14:46:02.467Z,4.10
2023-05-12T14:48:29.982Z,4.10
2023-05-12T14:50:57.562Z,4.50
2023-05-12T14:53:24.578Z,4.00
2023-05-12T14:55:51.910Z,4.90
2023-05-12T14:58:21.177Z,4.20
2023-05-12T15:00:50.454Z,4.30
2023-05-12T15:03:19.579Z,4.30
2023-05-12T15:06:04.674Z,4.30
2023-05-12T15:08:33.602Z,4.50
2023-05-12T15:11:00.600Z,4.30
2023-05-12T15:13:27.656Z,4.40
2023-05-12T15:15:56.618Z,4.20
2023-05-12T15:18:24.364Z,4.20
2023-05-12T15:20:51.935Z,4.10
2023-05-12T15:23:19.107Z,4.30
2023-05-12T15:25:46.199Z,4.00
2023-05-12T15:28:13.495Z,4.00
2023-05-12T15:30:40.539Z,3.90
2023-05-12T15:33:07.831Z,4.10
2023-05-12T15:35:35.081Z,4.30
2023-05-12T15:38:02.108Z,4.00
2023-05-12T15:40:30.605Z,4.50
2023-05-12T15:42:57.958Z,4.20
2023-05-12T15:45:25.017Z,4.20
2023-05-12T15:47:52.782Z,4.10
2023-05-12T15:50:22.115Z,4.60
2023-05-12T15:52:49.260Z,4.30
2023-05-12T15:55:16.487Z,4.30
2023-05-12T15:57:43.533Z,4.30
2023-05-12T16:00:13.542Z,4.10
2023-05-12T16:02:40.958Z,4.00
2023-05-12T16:05:09.263Z,4.10
2023-05-12T16:07:36.584Z,4.60
2023-05-12T16:10:04.271Z,4.10
2023-05-12T16:12:31.357Z,4.20
2023-05-12T16:14:59.055Z,4.70
2023-05-12T16:17:27.225Z,4.40
2023-05-12T16:19:56.443Z,4.10
2023-05-12T16:22:23.494Z,5.10
2023-05-12T16:24:50.470Z,4.60
2023-05-12T16:27:17.625Z,3.90
2023-05-12T16:29:45.249Z,5.20
2023-05-12T16:32:12.363Z,4.70
2023-05-12T16:34:42.166Z,4.20
2023-05-12T16:37:09.263Z,4.10
2023-05-12T16:39:36.969Z,4.40
2023-05-12T16:42:04.354Z,4.10
2023-05-12T16:44:31.874Z,4.70
2023-05-12T16:46:58.994Z,4.10
2023-05-12T16:49:25.995Z,4.50
2023-05-12T16:51:53.006Z,4.30
2023-05-12T16:54:20.156Z,4.40
2023-05-12T16:56:47.982Z,4.40
2023-05-12T16:59:15.280Z,4.00
2023-05-12T17:01:42.277Z,4.70
2023-05-12T17:04:12.047Z,4.70
2023-05-12T17:06:39.049Z,4.80
2023-05-12T17:09:06.137Z,5.00
2023-05-12T17:11:33.200Z,4.60
2023-05-12T17:14:00.597Z,4.50
2023-05-12T17:16:28.185Z,4.10
2023-05-12T17:21:26.454Z,4.40
2023-05-12T17:23:54.241Z,4.80
2023-05-12T17:26:21.263Z,4.00
2023-05-12T17:28:48.384Z,4.60
2023-05-12T17:31:15.443Z,4.50
2023-05-12T17:33:42.495Z,4.40
2023-05-12T17:36:12.790Z,4.50
2023-05-12T17:41:07.965Z,4.10
2023-05-12T17:43:35.131Z,4.30
2023-05-12T17:46:03.752Z,4.30
2023-05-12T17:48:32.811Z,4.70
2023-05-12T17:51:01.075Z,4.50
2023-05-12T17:53:28.464Z,4.90
2023-05-12T17:55:55.585Z,4.80
2023-05-12T17:58:23.734Z,4.30
2023-05-12T18:00:51.455Z,4.70
2023-05-12T18:03:22.716Z,4.90
2023-05-12T18:05:52.275Z,4.60
2023-05-12T18:08:20.119Z,5.00
2023-05-12T18:10:50.302Z,4.80
2023-05-12T18:13:17.398Z,4.40
2023-05-12T18:15:44.516Z,4.90
2023-05-12T18:18:11.819Z,5.10
2023-05-12T18:20:39.145Z,4.50
2023-05-12T18:23:06.495Z,5.00
2023-05-12T18:25:33.541Z,5.20
2023-05-12T18:28:00.594Z,5.40
2023-05-12T18:30:27.804Z,5.00
2023-05-12T18:32:55.021Z,5.50
2023-05-12T18:35:22.585Z,5.40
2023-05-12T18:37:49.828Z,5.50
2023-05-12T18:40:16.779Z,5.20
2023-05-12T18:42:43.926Z,5.30
2023-05-12T18:45:11.613Z,5.90
2023-05-12T18:47:38.969Z,5.60
2023-05-12T18:50:07.302Z,5.50
2023-05-12T18:52:34.549Z,6.50
2023-05-12T18:55:01.705Z,5.50
2023-05-12T18:57:28.861Z,6.40
2023-05-12T18:59:56.097Z,6.40
2023-05-12T19:02:23.758Z,6.10
2023-05-12T19:04:51.648Z,6.60
2023-05-12T19:07:18.939Z,6.20
2023-05-12T19:09:45.980Z,6.00
2023-05-12T19:12:13.027Z,6.00
2023-05-12T19:14:40.499Z,6.60
2023-05-12T19:17:07.579Z,6.40
2023-05-12T19:19:34.712Z,6.70
2023-05-12T19:22:03.769Z,6.30
2023-05-12T19:24:30.919Z,6.50
2023-05-12T19:26:58.009Z,6.90
2023-05-12T19:29:25.661Z,6.60
2023-05-12T19:31:53.406Z,6.90
2023-05-12T19:34:21.113Z,8.10
2023-05-12T19:36:48.175Z,7.90
2023-05-12T19:39:15.170Z,7.30
2023-05-12T19:41:42.258Z,7.80
2023-05-12T19:44:09.371Z,7.50
2023-05-12T19:46:36.482Z,7.30
2023-05-12T19:49:05.375Z,7.30
2023-05-12T19:51:32.690Z,8.00
2023-05-12T19:54:01.468Z,7.90
2023-05-12T19:56:29.621Z,8.70
2023-05-12T19:58:56.607Z,8.20
2023-05-12T20:01:23.970Z,7.90
2023-05-12T20:03:53.131Z,8.20
2023-05-12T20:06:21.988Z,8.40
2023-05-12T20:08:49.040Z,9.20
2023-05-12T20:11:16.111Z,8.10
2023-05-12T20:13:43.182Z,8.90
2023-05-12T20:16:10.261Z,8.70
2023-05-12T20:18:37.335Z,8.20
2023-05-12T20:21:04.406Z,8.40
2023-05-12T20:23:31.694Z,8.40
2023-05-12T20:25:59.379Z,8.80
2023-05-12T20:28:26.390Z,8.10
2023-05-12T20:30:53.589Z,8.50
2023-05-12T20:33:20.654Z,8.10
2023-05-12T20:35:47.832Z,8.50
2023-05-12T20:38:14.847Z,8.30
2023-05-12T20:40:41.775Z,8.70
2023-05-12T20:43:08.980Z,8.50
2023-05-12T20:45:37.105Z,8.60
2023-05-12T20:48:04.537Z,8.00
2023-05-12T20:50:31.718Z,9.90
2023-05-12T20:52:58.975Z,9.90
2023-05-12T20:55:26.120Z,9.50
2023-05-12T20:57:53.210Z,9.40
2023-05-12T21:00:21.255Z,9.10
2023-05-12T21:02:51.667Z,9.50
2023-05-12T21:05:19.098Z,8.60
2023-05-12T21:07:46.215Z,8.80
2023-05-12T21:10:13.329Z,8.90
2023-05-12T21:12:40.395Z,9.50
2023-05-12T21:15:10.753Z,9.80
2023-05-12T21:17:41.151Z,10.80
2023-05-12T21:20:09.991Z,9.40
2023-05-12T21:22:40.017Z,9.90
2023-05-12T21:25:07.345Z,10.80
2023-05-12T21:27:39.949Z,10.20
2023-05-12T21:30:09.150Z,10.10
2023-05-12T21:32:36.609Z,10.60
2023-05-12T21:35:04.471Z,10.30
2023-05-12T21:37:31.585Z,10.40
2023-05-12T21:39:58.590Z,10.40
2023-05-12T21:42:25.622Z,11.00
2023-05-12T21:44:52.646Z,10.50
2023-05-12T21:47:19.829Z,10.70
2023-05-12T21:49:46.847Z,10.60
2023-05-12T21:52:15.526Z,10.10
2023-05-12T21:54:42.514Z,11.40
2023-05-12T21:57:09.479Z,10.70
2023-05-12T21:59:36.621Z,11.30
2023-05-12T22:02:04.247Z,11.00
2023-05-12T22:04:31.331Z,11.20
2023-05-12T22:06:58.370Z,10.90
2023-05-12T22:09:25.559Z,11.10
2023-05-12T22:11:52.770Z,11.60
2023-05-12T22:14:20.556Z,12.50
2023-05-12T22:16:47.522Z,12.90
2023-05-12T22:19:16.093Z,10.80
2023-05-12T22:21:43.173Z,11.20
2023-05-12T22:24:10.898Z,12.60
2023-05-12T22:26:38.060Z,11.30
2023-05-12T22:29:05.227Z,12.00
2023-05-12T22:31:32.253Z,11.30
2023-05-12T22:33:59.324Z,13.20
2023-05-12T22:36:26.306Z,13.10
2023-05-12T22:38:53.396Z,13.50
2023-05-12T22:41:20.408Z,13.50
2023-05-12T22:43:47.426Z,13.40
2023-05-12T22:46:14.362Z,12.90
2023-05-12T22:48:42.147Z,13.60
2023-05-12T22:51:10.074Z,13.40
2023-05-12T22:53:40.918Z,14.10
2023-05-12T22:56:08.002Z,14.50
2023-05-12T22:58:35.018Z,15.40
2023-05-12T23:01:02.197Z,15.50
2023-05-12T23:03:29.523Z,15.10
2023-05-12T23:05:56.641Z,14.40
2023-05-12T23:08:24.187Z,14.50
2023-05-12T23:10:51.149Z,14.80
2023-05-12T23:13:18.119Z,14.70
2023-05-12T23:15:45.722Z,14.40
2023-05-12T23:18:14.318Z,14.10
2023-05-12T23:20:41.301Z,15.50
2023-05-12T23:23:08.253Z,16.00
2023-05-12T23:25:36.494Z,15.60
2023-05-12T23:28:03.499Z,15.30
2023-05-12T23:30:31.753Z,15.90
2023-05-12T23:32:58.834Z,15.30
2023-05-12T23:35:26.340Z,16.00
2023-05-12T23:37:53.655Z,16.40
2023-05-12T23:40:20.898Z,15.80
2023-05-12T23:42:48.235Z,17.00
2023-05-12T23:45:15.546Z,15.90
2023-05-12T23:47:42.988Z,16.00
2023-05-12T23:50:10.206Z,16.00
2023-05-12T23:52:37.280Z,15.20
2023-05-12T23:55:04.657Z,16.40
2023-05-12T23:57:31.564Z,16.70
2023-05-12T23:59:58.640Z,16.90
